Latest Weather Observations for Dunalley

IDT60801

Issued at 1:31 pm EST Tuesday 26 May 2015 (issued every 30 minutes, with the page automatically refreshed every 10 minutes)

About weather observations | Map of weather stations | Latest weather observations for TAS | Other Formats
Station Details ID: 094254 Name: DUNALLEY (STROUD POINT) Lat: -42.90 Lon: 147.79 Height: 12.43 m
Data from the previous 72 hours. | See also: Recent months at Dunalley
Date/Time
EST
Temp
°C
App
Temp
°C
Dew
Point
Rel
Hum
%
Delta-T
°C
Wind Press
QNH
hPa
Press
MSL
hPa
Rain
since 9 am
mm
Dir
 
Spd
km/h
Gust
km/h
Spd
kts
Gust
kts
26/01:30pm 13.8 13.6 11.7 87 1.1 SW 4 4 2 2 1025.2 1025.3 0.0
26/01:00pm 13.4 13.2 11.8 90 0.9 SW 4 6 2 3 1025.4 1025.5 0.0
26/12:30pm 13.4 12.9 12.1 92 0.7 SW 6 6 3 3 1025.7 1025.8 0.0
26/12:00pm 13.1 12.9 11.8 92 0.7 SW 4 4 2 2 1026.0 1026.1 0.0
26/11:30am 13.2 13.5 12.3 94 0.5 SW 2 4 1 2 1026.3 1026.4 0.0
26/11:00am 13.0 13.7 12.1 94 0.5 CALM 0 0 0 0 1026.6 1026.7 0.0
26/10:30am 12.9 13.3 12.6 98 0.2 SW 2 2 1 1 1026.8 1026.9 0.0
26/10:00am 12.0 12.2 11.8 99 0.1 SW 2 4 1 2 1026.8 1026.9 0.0
26/09:30am 11.2 10.8 11.2 100 0.0 SW 4 4 2 2 1026.8 1026.9 0.0
26/09:00am 10.8 10.3 10.8 100 0.0 SW 4 4 2 2 1026.8 1026.9 0.0
26/08:30am 10.7 9.8 10.7 100 0.0 SW 6 6 3 3 1026.7 1026.8 0.0
26/08:00am 8.5 7.0 8.5 100 0.0 SW 6 6 3 3 1026.6 1026.7 0.0
26/07:30am 7.9 6.7 7.9 100 0.0 SW 4 6 2 3 1026.4 1026.5 0.0
26/07:00am 8.1 6.9 8.1 100 0.0 SW 4 7 2 4 1026.1 1026.2 0.0
26/06:30am 10.6 10.4 10.4 99 0.1 SW 2 4 1 2 1025.8 1025.9 0.0
26/06:00am 10.7 10.1 10.5 99 0.1 SW 4 6 2 3 1025.5 1025.6 0.0
26/05:30am 10.3 9.6 10.1 99 0.1 SW 4 4 2 2 1025.5 1025.6 0.0
26/05:00am 10.5 9.9 10.3 99 0.1 SW 4 6 2 3 1025.4 1025.5 0.0
26/04:30am 10.8 9.9 10.6 99 0.1 SW 6 7 3 4 1025.4 1025.5 0.0
26/04:00am 11.0 9.6 10.8 99 0.1 SW 9 11 5 6 1025.2 1025.3 0.0
26/03:30am 11.3 9.1 10.7 96 0.3 SSW 13 17 7 9 1025.1 1025.2 0.0
26/03:00am 12.6 9.8 10.1 85 1.3 WNW 15 20 8 11 1025.0 1025.1 0.0
26/02:30am 12.5 9.3 10.0 85 1.3 NW 17 24 9 13 1025.0 1025.1 0.0
26/02:00am 12.5 10.5 10.0 85 1.3 NW 11 19 6 10 1025.1 1025.2 0.0
26/01:30am 10.7 10.0 10.2 97 0.3 NW 4 9 2 5 1025.0 1025.1 0.0
26/01:00am 8.5 7.4 8.4 99 0.0 NW 4 6 2 3 1025.1 1025.2 0.0
26/12:30am 9.7 8.5 9.6 99 0.0 NW 6 7 3 4 1025.1 1025.2 0.0
26/12:00am 9.3 8.0 9.2 99 0.0 NW 6 7 3 4 1025.0 1025.1 0.0
 
Date/Time
EST
Temp
°C
App
Temp
°C
Dew
Point
Rel
Hum
%
Delta-T
°C
Wind Press
QNH
hPa
Press
MSL
hPa
Rain
since 9 am
mm
Dir
 
Spd
km/h
Gust
km/h
Spd
kts
Gust
kts
25/11:30pm 8.9 7.8 8.5 97 0.2 NW 4 6 2 3 1025.0 1025.1 0.0
25/11:00pm 8.7 7.2 8.6 99 0.0 NW 6 7 3 4 1025.1 1025.2 0.0
25/10:30pm 8.4 6.3 8.3 99 0.0 NW 9 15 5 8 1025.4 1025.5 0.0
25/10:00pm 8.5 6.4 8.4 99 0.0 NW 9 13 5 7 1025.6 1025.7 0.0
25/09:30pm 8.7 7.2 8.6 99 0.0 NW 6 7 3 4 1025.6 1025.7 0.0
25/09:00pm 9.2 8.3 9.1 99 0.0 NW 4 6 2 3 1025.6 1025.7 0.0
25/08:30pm 8.7 6.3 8.6 99 0.0 NW 11 15 6 8 1025.6 1025.7 0.0
25/08:00pm 8.8 6.8 8.7 99 0.0 NW 9 13 5 7 1025.9 1026.0 0.0
25/07:30pm 9.0 7.4 8.9 99 0.0 NW 7 9 4 5 1026.1 1026.2 0.0
25/07:00pm 9.2 7.7 9.1 99 0.0 NW 7 9 4 5 1026.0 1026.1 0.0
25/06:30pm 9.2 7.7 9.1 99 0.0 NW 7 9 4 5 1026.1 1026.2 0.0
25/06:00pm 9.2 7.9 9.1 99 0.0 NW 6 7 3 4 1025.9 1026.0 0.0
25/05:30pm 10.4 10.0 9.9 97 0.3 NW 2 2 1 1 1025.8 1025.9 0.0
25/05:00pm 10.4 10.1 10.1 98 0.2 NW 2 2 1 1 1025.7 1025.8 0.0
25/04:30pm 11.3 10.4 10.7 96 0.3 NW 6 6 3 3 1025.6 1025.7 0.0
25/04:00pm 11.4 10.5 10.6 95 0.4 NW 6 7 3 4 1025.7 1025.8 0.0
25/03:30pm 11.4 10.6 11.1 98 0.2 NW 6 7 3 4 1026.0 1026.1 0.0
25/03:00pm 11.7 10.9 11.1 96 0.3 NW 6 7 3 4 1026.0 1026.1 0.0
25/02:30pm 11.6 10.5 10.5 93 0.6 NW 7 9 4 5 1026.0 1026.1 0.0
25/02:00pm 11.5 10.3 10.4 93 0.6 NW 7 9 4 5 1026.2 1026.3 0.0
25/01:30pm 11.1 10.4 10.2 94 0.5 NW 4 6 2 3 1026.4 1026.5 0.0
25/01:00pm 10.8 9.6 9.4 91 0.7 NW 6 7 3 4 1026.6 1026.7 0.0
25/12:30pm 11.3 10.1 9.6 89 0.9 NW 6 7 3 4 1026.8 1026.9 0.0
25/12:00pm 10.8 9.0 9.6 92 0.6 NW 9 13 5 7 1027.3 1027.4 0.0
25/11:30am 10.7 9.4 9.8 94 0.5 NW 7 11 4 6 1027.7 1027.8 0.0
25/11:00am 10.1 8.7 9.5 96 0.3 NW 7 11 4 6 1028.1 1028.2 0.0
25/10:30am 10.1 8.2 9.2 94 0.4 NW 9 11 5 6 1028.3 1028.4 0.0
25/10:00am 9.3 7.7 8.7 96 0.3 NW 7 9 4 5 1028.2 1028.3 0.0
25/09:30am 8.6 6.8 8.0 96 0.3 NW 7 11 4 6 1028.3 1028.4 0.0
25/09:00am 8.3 7.7 7.5 95 0.4 CALM 0 2 0 1 1028.4 1028.5 0.0
25/08:30am 7.8 7.3 7.7 99 0.0 CALM 0 2 0 1 1028.6 1028.7 0.0
25/08:00am 7.4 6.4 7.3 99 0.0 NW 2 6 1 3 1028.6 1028.7 0.0
25/07:30am 7.2 5.8 7.1 99 0.0 NW 4 4 2 2 1028.5 1028.6 0.0
25/07:00am 7.0 5.5 6.9 99 0.0 NW 4 6 2 3 1028.5 1028.6 0.0
25/06:30am 7.1 5.3 7.0 99 0.0 NW 6 9 3 5 1028.2 1028.3 0.0
25/06:00am 7.0 5.0 6.9 99 0.0 NW 7 9 4 5 1028.2 1028.3 0.0
25/05:30am 7.0 5.2 7.0 100 0.0 NW 6 7 3 4 1028.1 1028.2 0.0
25/05:00am 6.3 4.7 6.2 99 0.0 NW 4 6 2 3 1028.1 1028.2 0.0
25/04:30am 6.3 5.0 6.2 99 0.0 NW 2 4 1 2 1028.3 1028.4 0.0
25/04:00am 5.9 3.8 5.8 99 0.0 NW 6 7 3 4 1028.1 1028.2 0.0
25/03:30am 6.6 5.8 6.5 99 0.0 CALM 0 4 0 2 1028.2 1028.3 0.0
25/03:00am 6.1 4.4 6.0 99 0.0 NW 4 6 2 3 1028.5 1028.6 0.0
25/02:30am 6.0 3.9 5.9 99 0.0 NW 6 9 3 5 1028.6 1028.7 0.0
25/02:00am 6.6 5.8 6.5 99 0.0 CALM 0 4 0 2 1028.5 1028.6 0.0
25/01:30am 6.5 5.7 6.4 99 0.0 CALM 0 0 0 0 1028.6 1028.7 0.0
25/01:00am 6.7 5.9 6.6 99 0.0 CALM 0 2 0 1 1028.8 1028.9 0.0
25/12:30am 6.5 5.7 6.4 99 0.0 CALM 0 0 0 0 1028.8 1028.9 0.0
25/12:00am 6.3 4.7 6.2 99 0.0 NW 4 6 2 3 1028.9 1029.0 0.0
 
Date/Time
EST
Temp
°C
App
Temp
°C
Dew
Point
Rel
Hum
%
Delta-T
°C
Wind Press
QNH
hPa
Press
MSL
hPa
Rain
since 9 am
mm
Dir
 
Spd
km/h
Gust
km/h
Spd
kts
Gust
kts
24/11:30pm 6.5 4.9 6.4 99 0.0 NW 4 6 2 3 1029.1 1029.2 0.0
24/11:00pm 6.1 4.4 6.0 99 0.0 NW 4 6 2 3 1029.0 1029.1 0.0
24/10:30pm 6.9 5.8 6.9 100 0.0 NW 2 4 1 2 1028.9 1029.0 0.0
24/10:00pm 6.7 5.2 6.7 100 0.0 NW 4 4 2 2 1029.1 1029.2 0.0
24/09:30pm 6.5 5.3 6.5 100 0.0 NW 2 4 1 2 1029.1 1029.2 0.0
24/09:00pm 5.9 3.8 5.8 99 0.0 NW 6 6 3 3 1029.1 1029.2 0.0
24/08:30pm 5.9 4.2 5.9 100 0.0 NW 4 6 2 3 1029.0 1029.1 0.0
24/08:00pm 6.3 4.3 6.2 99 0.0 NW 6 6 3 3 1029.1 1029.2 0.0
24/07:30pm 6.0 3.7 5.9 99 0.0 NW 7 9 4 5 1029.1 1029.2 0.0
24/07:00pm 6.3 4.3 6.2 99 0.0 NW 6 6 3 3 1029.0 1029.1 0.0
24/06:30pm 6.7 4.8 6.6 99 0.0 NW 6 6 3 3 1028.8 1028.9 0.0
24/06:00pm 6.7 4.8 6.6 99 0.0 NW 6 6 3 3 1028.6 1028.7 0.0
24/05:30pm 7.2 5.4 7.1 99 0.0 NW 6 6 3 3 1028.4 1028.5 0.0
24/05:00pm 7.8 7.3 7.7 99 0.0 CALM 0 0 0 0 1028.4 1028.5 0.0
24/04:30pm 8.6 8.2 8.3 98 0.1 CALM 0 0 0 0 1028.5 1028.6 0.0
24/04:00pm 9.0 8.6 8.1 94 0.4 CALM 0 0 0 0 1028.6 1028.7 0.0
24/03:30pm 9.2 8.4 8.1 93 0.5 NW 2 4 1 2 1028.5 1028.6 0.0
24/03:00pm 9.8 8.6 8.1 89 0.8 NW 4 6 2 3 1028.4 1028.5 0.0
24/02:30pm 9.8 8.9 7.9 88 0.9 NW 2 4 1 2 1028.3 1028.4 0.0
24/02:00pm 9.9 8.6 7.7 86 1.0 NW 4 4 2 2 1028.5 1028.6 0.0
24/01:30pm 9.9 8.6 7.5 85 1.1 NW 4 4 2 2 1028.7 1028.8 0.0
24/01:00pm 9.7 8.1 7.8 88 0.9 NW 6 6 3 3 1028.9 1029.0 0.0
24/12:30pm 9.6 8.0 7.9 89 0.8 NW 6 7 3 4 1029.2 1029.3 0.0
24/12:00pm 9.5 7.4 8.1 91 0.7 NW 9 11 5 6 1029.3 1029.4 0.0
24/11:30am 9.6 7.7 7.5 87 1.0 NW 7 9 4 5 1029.6 1029.7 0.0
24/11:00am 9.3 7.3 6.4 82 1.3 NW 6 9 3 5 1030.0 1030.0 0.0
24/10:30am 8.7 7.2 6.8 88 0.9 NW 4 6 2 3 1030.1 1030.1 0.0
24/10:00am 8.3 7.1 6.4 88 0.9 NW 2 4 1 2 1030.2 1030.2 0.0
24/09:30am 7.6 6.7 6.2 91 0.6 CALM 0 0 0 0 1030.5 1030.5 0.0
24/09:00am 6.6 5.4 6.5 99 0.0 NW 2 4 1 2 1030.4 1030.4 0.0
24/08:30am 5.6 4.2 5.5 99 0.0 NW 2 4 1 2 1030.5 1030.5 0.0
24/08:00am 5.4 4.0 5.3 99 0.0 NW 2 4 1 2 1030.1 1030.1 0.0
24/07:30am 5.4 3.5 5.0 97 0.2 NW 4 7 2 4 1029.7 1029.8 0.0
24/07:00am 4.9 3.7 4.8 99 0.0 CALM 0 2 0 1 1029.6 1029.7 0.0
24/06:30am 5.4 4.0 5.3 99 0.0 NW 2 4 1 2 1029.5 1029.6 0.0
24/06:00am 6.3 4.5 5.4 94 0.4 NW 4 9 2 5 1029.1 1029.2 0.0
24/05:30am 5.5 2.6 4.6 94 0.4 NW 9 13 5 7 1029.0 1029.1 0.0
24/05:00am 6.7 3.5 5.2 90 0.7 NW 11 17 6 9 1028.7 1028.8 0.0
24/04:30am 7.0 3.2 5.6 91 0.6 NNW 15 19 8 10 1028.4 1028.5 0.0
24/04:00am 7.0 3.1 5.5 90 0.7 NNW 15 20 8 11 1028.4 1028.5 0.0
24/03:30am 7.3 3.5 5.8 90 0.7 NW 15 20 8 11 1028.5 1028.6 0.0
24/03:00am 7.1 3.3 5.6 90 0.7 NW 15 19 8 10 1028.4 1028.5 0.0
24/02:30am 7.4 2.9 5.9 90 0.7 NW 19 24 10 13 1028.6 1028.7 0.0
24/02:00am 7.6 3.1 5.9 89 0.8 NW 19 24 10 13 1028.6 1028.7 0.0
24/01:30am 7.7 3.9 6.0 89 0.8 NW 15 20 8 11 1028.5 1028.6 0.0
24/01:00am 7.6 3.4 5.9 89 0.8 WNW 17 20 9 11 1028.5 1028.6 0.0
24/12:30am 7.6 4.2 5.9 89 0.8 WNW 13 17 7 9 1028.5 1028.6 0.0
24/12:00am 8.0 3.9 6.0 87 0.9 WNW 17 20 9 11 1028.6 1028.7 0.0
 
Date/Time
EST
Temp
°C
App
Temp
°C
Dew
Point
Rel
Hum
%
Delta-T
°C
Wind Press
QNH
hPa
Press
MSL
hPa
Rain
since 9 am
mm
Dir
 
Spd
km/h
Gust
km/h
Spd
kts
Gust
kts
23/11:30pm 8.2 4.5 6.3 88 0.9 NW 15 19 8 10 1028.5 1028.6 0.0
23/11:00pm 7.8 4.1 6.1 89 0.8 W 15 19 8 10 1028.2 1028.3 0.0
23/10:30pm 8.6 5.0 6.7 88 0.9 WNW 15 20 8 11 1028.5 1028.6 0.0
23/10:00pm 7.4 4.5 6.3 93 0.5 W 11 13 6 7 1028.6 1028.7 0.0
23/09:30pm 8.4 4.8 6.9 90 0.7 WNW 15 17 8 9 1028.5 1028.6 0.0
23/09:00pm 9.3 5.7 8.2 93 0.5 WSW 17 20 9 11 1028.6 1028.7 0.0
23/08:30pm 10.0 6.2 8.9 93 0.5 WSW 19 20 10 11 1028.7 1028.8 0.0
23/08:00pm 10.2 5.8 9.0 92 0.6 WSW 22 24 12 13 1028.5 1028.6 0.0
23/07:30pm 10.3 5.9 8.9 91 0.7 WSW 22 26 12 14 1028.5 1028.6 0.0
23/07:00pm 10.4 5.2 8.7 89 0.8 WSW 26 30 14 16 1028.3 1028.4 0.0
23/06:30pm 10.7 5.6 9.1 90 0.8 WSW 26 30 14 16 1028.1 1028.2 0.0
23/06:00pm 10.9 7.0 9.5 91 0.7 WSW 20 24 11 13 1028.0 1028.1 0.0
23/05:30pm 11.0 7.1 9.4 90 0.8 WSW 20 24 11 13 1027.9 1028.0 0.0
23/05:00pm 10.9 5.8 9.2 89 0.8 WSW 26 32 14 17 1027.6 1027.7 0.0
23/04:30pm 11.1 6.0 9.2 88 0.9 SW 26 32 14 17 1027.6 1027.7 0.0
23/04:00pm 11.5 5.7 9.6 88 1.0 SW 30 35 16 19 1027.2 1027.3 0.0
23/03:30pm 11.9 7.0 9.8 87 1.1 WSW 26 32 14 17 1027.3 1027.4 0.0
23/03:00pm 11.9 6.1 9.6 86 1.2 WSW 30 35 16 19 1027.1 1027.2 0.0
23/02:30pm 11.9 6.9 9.5 85 1.2 WSW 26 33 14 18 1027.1 1027.2 0.0
23/02:00pm 11.9 6.2 9.8 87 1.1 WSW 30 35 16 19 1027.3 1027.4 0.0

Other Formats:

Comma delimited format used in spreadsheet applications
http://www.bom.gov.au/fwo/IDT60801/IDT60801.94951.axf

JavaScript Object Notation format (JSON) in row-major order
http://www.bom.gov.au/fwo/IDT60801/IDT60801.94951.json